createdAt,value
2023-01-29T00:02:07.690Z,583.78
2023-01-29T00:04:34.331Z,582.28
2023-01-29T00:07:00.960Z,584.55
2023-01-29T00:09:28.555Z,584.17
2023-01-29T00:11:55.132Z,593.77
2023-01-29T00:14:21.827Z,587.85
2023-01-29T00:16:48.567Z,585.40
2023-01-29T00:19:15.244Z,593.93
2023-01-29T00:21:41.884Z,592.78
2023-01-29T00:24:08.590Z,600.40
2023-01-29T00:26:35.338Z,598.67
2023-01-29T00:29:02.627Z,594.40
2023-01-29T05:31:26.537Z,589.28
2023-01-29T05:33:53.211Z,583.65
2023-01-29T05:36:19.900Z,589.95
2023-01-29T05:38:46.543Z,580.75
2023-01-29T05:41:13.174Z,585.50
2023-01-29T05:43:39.763Z,574.13
2023-01-29T05:46:07.494Z,572.45
2023-01-29T05:48:34.210Z,570.30
2023-01-29T05:51:02.191Z,564.88
2023-01-29T05:53:29.525Z,571.33
2023-01-29T05:55:58.912Z,568.58
2023-01-29T05:58:25.588Z,568.15
2023-01-29T06:00:52.176Z,570.88
2023-01-29T06:03:18.971Z,572.78
2023-01-29T06:05:45.676Z,579.17
2023-01-29T06:08:13.219Z,576.30
2023-01-29T06:10:39.993Z,564.70
2023-01-29T06:13:07.058Z,566.97
2023-01-29T06:15:33.673Z,563.70
2023-01-29T06:18:00.251Z,565.58
2023-01-29T06:20:27.000Z,564.93
2023-01-29T06:22:53.645Z,568.97
2023-01-29T06:25:20.302Z,564.92
2023-01-29T06:27:50.942Z,563.50
2023-01-29T06:30:17.932Z,562.78
2023-01-29T06:32:44.932Z,562.28
2023-01-29T06:35:11.575Z,560.28
2023-01-29T06:37:38.259Z,556.20
2023-01-29T06:40:05.307Z,552.95
2023-01-29T06:42:32.025Z,552.72
2023-01-29T06:44:58.670Z,556.05
2023-01-29T06:47:27.007Z,553.92
2023-01-29T06:49:53.676Z,560.20
2023-01-29T06:52:20.288Z,550.45
2023-01-29T06:54:47.358Z,555.30
2023-01-29T06:57:14.060Z,544.97
2023-01-29T06:59:40.710Z,546.30
2023-01-29T07:02:07.378Z,551.30
2023-01-29T07:04:35.505Z,551.60
2023-01-29T07:07:02.198Z,558.20
2023-01-29T07:09:28.858Z,559.03
2023-01-29T07:11:55.507Z,559.53
2023-01-29T07:14:22.129Z,562.17
2023-01-29T07:16:48.781Z,559.43
2023-01-29T07:19:15.608Z,563.03
2023-01-29T07:21:42.249Z,555.95
2023-01-29T07:24:09.437Z,560.63
2023-01-29T07:26:36.138Z,560.67
2023-01-29T07:29:05.022Z,567.75
2023-01-29T07:31:31.789Z,562.95
2023-01-29T07:33:58.438Z,575.88
2023-01-29T07:36:25.205Z,569.78
2023-01-29T07:38:52.048Z,566.47
2023-01-29T07:41:19.124Z,565.88
2023-01-29T07:43:45.818Z,568.53
2023-01-29T07:46:12.494Z,570.78
2023-01-29T07:48:39.137Z,568.17
2023-01-29T07:51:06.339Z,571.05
2023-01-29T07:53:33.034Z,569.27
2023-01-29T07:55:59.767Z,575.22
2023-01-29T07:58:26.447Z,568.03
2023-01-29T08:00:53.098Z,574.93
2023-01-29T08:03:20.762Z,566.47
2023-01-29T08:05:48.262Z,567.97
2023-01-29T08:08:15.211Z,567.70
2023-01-29T08:10:42.492Z,565.40
2023-01-29T08:13:09.393Z,566.33
2023-01-29T08:15:38.755Z,578.13
2023-01-29T08:18:06.574Z,581.63
2023-01-29T08:20:33.302Z,577.13
2023-01-29T08:23:07.911Z,582.00
2023-01-29T08:25:35.998Z,579.78
2023-01-29T08:28:02.718Z,579.88
2023-01-29T08:30:31.736Z,578.63
2023-01-29T08:32:58.723Z,583.88
2023-01-29T08:35:26.489Z,583.33
2023-01-29T08:37:59.260Z,584.08
2023-01-29T08:40:26.925Z,585.17
2023-01-29T08:42:58.237Z,592.95
2023-01-29T08:45:27.364Z,586.83
2023-01-29T08:47:54.013Z,592.65
2023-01-29T08:50:20.702Z,585.30
2023-01-29T08:52:47.340Z,584.30
2023-01-29T08:55:14.575Z,593.35
2023-01-29T08:57:41.398Z,593.78
2023-01-29T09:00:09.971Z,588.33
2023-01-29T09:02:37.625Z,584.08
2023-01-29T09:05:04.651Z,586.58
2023-01-29T09:07:31.345Z,588.67
2023-01-29T09:09:57.999Z,596.72
2023-01-29T09:12:24.888Z,593.58
2023-01-29T09:14:51.681Z,591.78
2023-01-29T09:17:18.383Z,598.63
2023-01-29T09:19:45.004Z,595.73
2023-01-29T09:22:12.005Z,604.10
2023-01-29T09:24:38.915Z,606.33
2023-01-29T09:27:06.125Z,606.28
2023-01-29T09:29:35.498Z,607.45
2023-01-29T09:32:03.716Z,591.55
2023-01-29T09:34:30.383Z,605.50
2023-01-29T09:36:57.172Z,607.20
2023-01-29T09:39:23.841Z,602.53
2023-01-29T09:42:03.947Z,607.43
2023-01-29T09:45:02.602Z,598.72
2023-01-29T09:47:31.854Z,605.20
2023-01-29T09:50:05.732Z,592.53
2023-01-29T09:52:37.234Z,591.35
2023-01-29T09:55:19.612Z,589.38
2023-01-29T09:57:52.426Z,588.28
2023-01-29T10:00:25.211Z,598.25
2023-01-29T10:02:51.836Z,596.38
2023-01-29T10:05:55.261Z,600.13
2023-01-29T10:08:43.903Z,592.23
2023-01-29T10:11:45.921Z,596.20
2023-01-29T10:14:24.225Z,607.60
2023-01-29T10:17:28.028Z,605.22
2023-01-29T10:20:20.657Z,607.08
2023-01-29T10:23:07.389Z,604.55
2023-01-29T10:25:39.319Z,606.45
2023-01-29T10:28:17.704Z,602.58
2023-01-29T10:30:54.700Z,607.00
2023-01-29T10:33:49.140Z,607.53
2023-01-29T10:36:32.066Z,613.65
2023-01-29T10:38:58.810Z,612.22
2023-01-29T10:41:40.518Z,606.57
2023-01-29T10:44:37.780Z,611.10
2023-01-29T10:47:23.033Z,611.15
2023-01-29T10:50:08.226Z,611.15
2023-01-29T10:53:16.495Z,610.75
2023-01-29T10:56:13.914Z,612.08
2023-01-29T10:58:54.780Z,609.83
2023-01-29T11:01:21.460Z,609.53
2023-01-29T11:04:06.244Z,610.50
2023-01-29T11:06:34.327Z,618.03
2023-01-29T11:09:39.175Z,613.88
2023-01-29T11:12:10.155Z,611.53
2023-01-29T11:14:56.759Z,614.90
2023-01-29T11:17:25.786Z,612.17
2023-01-29T11:19:57.305Z,615.63
2023-01-29T11:22:28.844Z,617.25
2023-01-29T11:25:32.644Z,614.70
2023-01-29T11:28:01.880Z,615.55
2023-01-29T11:30:39.533Z,612.70
2023-01-29T11:33:18.336Z,617.92
2023-01-29T11:35:45.338Z,614.65
2023-01-29T11:38:28.985Z,607.10
2023-01-29T11:41:18.758Z,615.00
2023-01-29T11:43:45.361Z,609.10
2023-01-29T11:46:14.666Z,611.45
2023-01-29T11:48:58.971Z,613.03
2023-01-29T11:51:29.702Z,611.20
2023-01-29T11:54:01.027Z,608.15
2023-01-29T11:56:34.108Z,607.85
2023-01-29T11:59:04.471Z,606.17
2023-01-29T12:01:40.804Z,608.55
2023-01-29T12:04:23.663Z,613.47
2023-01-29T12:06:53.066Z,608.67
2023-01-29T12:09:23.274Z,612.42
2023-01-29T12:11:50.024Z,611.65
2023-01-29T12:14:24.898Z,618.10
2023-01-29T12:16:57.066Z,618.35
2023-01-29T12:19:44.056Z,620.00
2023-01-29T12:22:22.489Z,612.03
2023-01-29T12:25:01.874Z,605.25
2023-01-29T12:27:56.983Z,610.97
2023-01-29T12:30:42.074Z,613.03
2023-01-29T12:33:23.888Z,624.67
2023-01-29T12:35:57.937Z,614.20
2023-01-29T12:38:24.545Z,617.00
2023-01-29T12:41:07.832Z,615.33
2023-01-29T12:43:44.483Z,625.28
2023-01-29T12:46:24.070Z,626.58
2023-01-29T12:48:53.485Z,622.67
2023-01-29T12:51:25.434Z,622.42
2023-01-29T12:54:07.346Z,621.28
2023-01-29T12:56:47.106Z,618.55
2023-01-29T12:59:36.356Z,630.60
2023-01-29T13:02:23.806Z,631.97
2023-01-29T13:05:23.494Z,645.47
2023-01-29T13:08:05.123Z,649.70
2023-01-29T13:10:52.059Z,631.40
2023-01-29T13:13:54.121Z,634.08
2023-01-29T13:16:25.901Z,619.53
2023-01-29T13:19:05.076Z,612.65
2023-01-29T13:21:42.198Z,610.92
2023-01-29T13:24:15.048Z,600.47
2023-01-29T13:26:45.652Z,595.22
2023-01-29T13:29:25.980Z,599.35
2023-01-29T13:31:54.933Z,606.22
2023-01-29T13:34:25.806Z,592.10
2023-01-29T13:36:56.802Z,602.58
2023-01-29T13:39:37.805Z,600.90
2023-01-29T13:42:19.290Z,598.28
2023-01-29T13:44:56.099Z,603.47
2023-01-29T13:47:29.198Z,601.47
2023-01-29T13:50:18.877Z,605.70
2023-01-29T13:52:52.330Z,604.80
2023-01-29T13:55:19.287Z,607.13
2023-01-29T13:57:46.121Z,608.83
2023-01-29T14:00:21.480Z,630.97
2023-01-29T14:03:00.459Z,634.30
2023-01-29T14:05:29.902Z,634.03
2023-01-29T14:08:00.830Z,617.60
2023-01-29T14:10:32.995Z,615.97
2023-01-29T14:13:11.618Z,595.20
2023-01-29T14:15:41.790Z,596.55
2023-01-29T14:18:08.391Z,597.70
2023-01-29T14:20:48.254Z,600.58
2023-01-29T14:23:28.701Z,593.22
2023-01-29T14:25:56.222Z,597.78
2023-01-29T14:28:25.891Z,578.03
2023-01-29T14:30:53.178Z,578.78
2023-01-29T14:33:31.829Z,568.58
2023-01-29T14:35:59.785Z,575.92
2023-01-29T14:38:29.148Z,570.10
2023-01-29T14:41:15.215Z,553.93
2023-01-29T14:43:42.053Z,566.63
2023-01-29T14:46:45.831Z,564.05
2023-01-29T14:49:12.577Z,566.88
2023-01-29T14:51:43.173Z,565.58
2023-01-29T14:54:26.198Z,574.83
2023-01-29T14:57:00.898Z,584.85
2023-01-29T14:59:30.778Z,578.67
2023-01-29T15:02:01.406Z,582.30
2023-01-29T15:04:34.961Z,584.78
2023-01-29T15:07:07.049Z,596.65
2023-01-29T15:09:48.432Z,599.50
2023-01-29T15:12:42.560Z,601.30
2023-01-29T15:15:24.149Z,602.63
2023-01-29T15:18:14.701Z,594.45
2023-01-29T15:20:42.733Z,598.05
2023-01-29T15:23:43.137Z,590.00
2023-01-29T15:26:22.351Z,594.83
2023-01-29T15:29:03.432Z,594.28
2023-01-29T15:31:31.987Z,591.42
2023-01-29T15:34:05.174Z,588.85
2023-01-29T15:36:32.744Z,588.80
2023-01-29T15:39:19.129Z,588.20
2023-01-29T15:41:46.157Z,589.33
2023-01-29T15:44:23.323Z,590.00
2023-01-29T15:46:53.797Z,586.85
2023-01-29T15:49:33.344Z,592.58
2023-01-29T15:52:04.550Z,590.83
2023-01-29T15:54:33.569Z,587.53
2023-01-29T15:57:01.517Z,588.42
2023-01-29T15:59:44.029Z,580.90
2023-01-29T16:02:35.507Z,578.72
2023-01-29T16:05:02.823Z,576.70
2023-01-29T16:07:30.512Z,564.93
2023-01-29T16:09:58.784Z,563.45
2023-01-29T16:12:25.621Z,573.10
2023-01-29T16:14:52.554Z,566.30
2023-01-29T16:17:27.270Z,579.90
2023-01-29T16:20:01.667Z,571.65
2023-01-29T16:22:36.898Z,576.60
2023-01-29T16:25:14.719Z,584.67
2023-01-29T16:27:43.605Z,576.30
2023-01-29T16:30:15.811Z,582.47
2023-01-29T16:32:42.530Z,575.55
2023-01-29T16:35:16.558Z,578.20
2023-01-29T16:37:48.512Z,580.67
2023-01-29T16:40:27.895Z,577.38
2023-01-29T16:43:18.592Z,580.10
2023-01-29T16:46:04.536Z,575.08
2023-01-29T16:48:33.775Z,570.42
2023-01-29T16:51:14.664Z,573.10
2023-01-29T16:53:59.872Z,571.05
2023-01-29T16:56:30.325Z,568.88
2023-01-29T16:58:57.971Z,574.50
2023-01-29T17:01:27.139Z,577.90
2023-01-29T17:04:05.719Z,577.70
2023-01-29T17:06:33.216Z,570.75
2023-01-29T17:09:00.436Z,572.00
2023-01-29T17:11:37.474Z,567.30
2023-01-29T17:14:07.122Z,572.67
2023-01-29T17:16:37.439Z,566.47
2023-01-29T17:19:17.890Z,571.38
2023-01-29T17:21:44.675Z,563.70
2023-01-29T17:24:11.507Z,562.15
2023-01-29T17:26:39.181Z,572.55
2023-01-29T17:29:08.181Z,565.30
2023-01-29T17:31:34.879Z,568.53
2023-01-29T17:34:01.602Z,588.08
2023-01-29T17:36:28.174Z,567.20
2023-01-29T17:38:54.858Z,569.72
2023-01-29T17:41:33.084Z,557.83
2023-01-29T17:43:59.722Z,560.22
2023-01-29T17:46:27.513Z,555.17
2023-01-29T17:48:54.112Z,555.58
2023-01-29T17:51:21.019Z,555.92
2023-01-29T17:53:48.504Z,554.30
2023-01-29T17:56:29.686Z,547.97
2023-01-29T17:58:56.448Z,551.95
2023-01-29T18:01:23.108Z,545.10
2023-01-29T18:03:49.789Z,550.63
2023-01-29T18:06:27.136Z,544.35
2023-01-29T18:08:53.829Z,542.92
2023-01-29T18:11:20.496Z,552.35
2023-01-29T18:13:47.142Z,550.50
2023-01-29T18:16:13.788Z,549.45
2023-01-29T18:18:40.479Z,538.38
2023-01-29T18:21:07.955Z,536.47
2023-01-29T18:23:34.643Z,549.53
2023-01-29T18:26:01.282Z,546.13
2023-01-29T18:28:27.853Z,562.15
2023-01-29T18:30:54.475Z,561.78
2023-01-29T18:33:21.264Z,561.27
2023-01-29T18:35:48.202Z,558.67
2023-01-29T18:38:14.911Z,556.67
2023-01-29T18:40:41.678Z,570.70
2023-01-29T18:43:08.567Z,566.88
2023-01-29T18:45:35.785Z,564.40
2023-01-29T18:48:02.446Z,567.60
2023-01-29T18:50:29.135Z,569.28
2023-01-29T18:52:55.840Z,567.22
2023-01-29T18:55:23.594Z,563.70
2023-01-29T18:58:26.976Z,565.45
2023-01-29T19:00:43.693Z,563.70
2023-01-29T19:03:11.199Z,557.80
2023-01-29T19:05:37.898Z,564.83
2023-01-29T19:08:05.880Z,565.90
2023-01-29T19:10:33.262Z,562.85
2023-01-29T19:13:00.081Z,562.92
2023-01-29T19:15:26.872Z,574.15
2023-01-29T19:17:53.807Z,575.00
2023-01-29T19:20:20.771Z,577.47
2023-01-29T19:22:47.495Z,569.13
2023-01-29T19:25:14.346Z,568.35
2023-01-29T19:27:41.222Z,573.67
2023-01-29T19:30:08.769Z,580.25
2023-01-29T19:32:35.453Z,579.90
2023-01-29T19:35:02.250Z,570.97
2023-01-29T19:37:30.800Z,561.65
2023-01-29T19:39:57.468Z,563.20
2023-01-29T19:42:24.130Z,565.03
2023-01-29T19:44:52.008Z,565.47
2023-01-29T19:47:18.888Z,566.30
2023-01-29T19:49:45.559Z,567.47
2023-01-29T19:52:41.447Z,572.90
2023-01-29T19:55:16.536Z,565.42
2023-01-29T19:57:43.289Z,564.78
2023-01-29T20:00:11.953Z,560.90
2023-01-29T20:02:38.779Z,563.10
2023-01-29T20:05:07.013Z,564.10
2023-01-29T20:07:35.834Z,561.83
2023-01-29T20:10:02.619Z,562.03
2023-01-29T20:12:29.825Z,558.45
2023-01-29T20:14:56.718Z,557.50
2023-01-29T20:17:23.497Z,561.25
2023-01-29T20:19:50.131Z,551.13
2023-01-29T20:22:16.775Z,540.13
2023-01-29T20:24:43.640Z,525.03
2023-01-29T20:27:10.798Z,530.63
2023-01-29T20:29:38.979Z,532.17
2023-01-29T20:32:07.838Z,528.13
2023-01-29T20:34:35.157Z,528.40
2023-01-29T20:37:02.011Z,533.13
2023-01-29T20:39:28.645Z,529.83
2023-01-29T20:41:57.154Z,532.67
2023-01-29T20:44:24.796Z,526.50
2023-01-29T20:46:51.739Z,529.35
2023-01-29T20:49:18.453Z,529.15
2023-01-29T20:51:45.935Z,529.08
2023-01-29T20:54:12.661Z,533.53
2023-01-29T20:56:45.359Z,533.53
2023-01-29T20:59:13.695Z,532.70
2023-01-29T21:01:41.021Z,532.28
2023-01-29T21:04:07.792Z,530.92
2023-01-29T21:06:34.513Z,531.70
2023-01-29T21:09:01.160Z,528.13
2023-01-29T21:11:28.518Z,532.17
2023-01-29T21:13:57.764Z,536.08
2023-01-29T21:16:26.220Z,535.78
2023-01-29T21:18:56.528Z,529.30
2023-01-29T21:21:23.469Z,534.28
2023-01-29T21:23:50.116Z,533.00
2023-01-29T21:26:16.958Z,530.90
2023-01-29T21:28:43.606Z,529.83
2023-01-29T21:31:12.617Z,526.72
2023-01-29T21:33:39.185Z,533.17
2023-01-29T21:36:06.789Z,534.92
2023-01-29T21:38:33.503Z,534.20
2023-01-29T21:41:05.224Z,536.20
2023-01-29T21:43:31.832Z,530.83
2023-01-29T21:46:00.223Z,532.63
2023-01-29T21:48:27.069Z,538.90
2023-01-29T21:50:53.812Z,537.25
2023-01-29T21:53:20.514Z,538.28
2023-01-29T21:55:47.468Z,530.10
2023-01-29T21:58:14.734Z,527.13
2023-01-29T22:00:41.544Z,525.20
2023-01-29T22:03:08.344Z,530.67
2023-01-29T22:05:35.184Z,533.22
2023-01-29T22:08:02.403Z,534.08
2023-01-29T22:10:30.542Z,526.58
2023-01-29T22:13:00.893Z,530.38
2023-01-29T22:15:27.732Z,527.97
2023-01-29T22:17:54.492Z,522.55
2023-01-29T22:20:25.621Z,515.72
2023-01-29T22:22:52.241Z,512.15
2023-01-29T22:25:20.089Z,512.88
2023-01-29T22:27:46.966Z,505.45
2023-01-29T22:30:13.795Z,502.83
2023-01-29T22:32:40.481Z,501.98
2023-01-29T22:35:07.545Z,499.67
2023-01-29T22:37:34.227Z,500.75
2023-01-29T22:40:00.860Z,507.10
2023-01-29T22:42:27.928Z,500.48
2023-01-29T22:44:54.527Z,502.90
2023-01-29T22:47:21.183Z,499.83
2023-01-29T22:49:49.953Z,497.13
2023-01-29T22:52:20.262Z,495.23
2023-01-29T22:54:46.871Z,493.95
2023-01-29T22:57:15.258Z,495.42
2023-01-29T22:59:41.884Z,492.93
2023-01-29T23:02:09.198Z,491.60
2023-01-29T23:04:35.936Z,493.45
2023-01-29T23:07:03.259Z,497.08
2023-01-29T23:09:29.902Z,493.38
2023-01-29T23:11:56.561Z,496.27
2023-01-29T23:14:23.229Z,493.40
2023-01-29T23:16:49.820Z,497.07
2023-01-29T23:19:16.506Z,497.58
2023-01-29T23:21:43.463Z,502.83
2023-01-29T23:24:10.592Z,499.50
2023-01-29T23:26:55.689Z,494.88
2023-01-29T23:29:22.336Z,500.80
2023-01-29T23:31:49.062Z,500.92
2023-01-29T23:34:15.771Z,496.75
2023-01-29T23:36:42.728Z,499.60
2023-01-29T23:39:09.608Z,496.00
2023-01-29T23:41:36.376Z,495.88
2023-01-29T23:44:03.212Z,493.13
2023-01-29T23:46:30.248Z,494.00
2023-01-29T23:48:56.859Z,493.75
2023-01-29T23:51:23.505Z,501.42
2023-01-29T23:53:50.298Z,493.57
2023-01-29T23:56:16.935Z,486.15
2023-01-29T23:58:44.730Z,490.60
